sensor_id;sensor_type;location;lat;lon;timestamp;P1;durP1;ratioP1;P2;durP2;ratioP2
36501;SDS011;25393;46.108;3.390;2023-05-13T00:00:00;8.68;;;3.45;;
36501;SDS011;25393;46.108;3.390;2023-05-13T00:02:30;8.40;;;3.72;;
36501;SDS011;25393;46.108;3.390;2023-05-13T00:04:59;5.25;;;2.83;;
36501;SDS011;25393;46.108;3.390;2023-05-13T00:07:25;6.97;;;2.80;;
36501;SDS011;25393;46.108;3.390;2023-05-13T00:09:57;5.60;;;3.40;;
36501;SDS011;25393;46.108;3.390;2023-05-13T00:12:27;5.13;;;2.92;;
36501;SDS011;25393;46.108;3.390;2023-05-13T00:14:59;3.97;;;2.88;;
36501;SDS011;25393;46.108;3.390;2023-05-13T00:17:25;7.32;;;3.33;;
36501;SDS011;25393;46.108;3.390;2023-05-13T00:19:52;6.20;;;3.33;;
36501;SDS011;25393;46.108;3.390;2023-05-13T00:22:18;8.57;;;2.67;;
36501;SDS011;25393;46.108;3.390;2023-05-13T00:24:45;7.28;;;3.42;;
36501;SDS011;25393;46.108;3.390;2023-05-13T00:27:12;6.28;;;3.83;;
36501;SDS011;25393;46.108;3.390;2023-05-13T00:29:39;4.72;;;3.08;;
36501;SDS011;25393;46.108;3.390;2023-05-13T00:32:05;6.15;;;3.38;;
36501;SDS011;25393;46.108;3.390;2023-05-13T00:34:32;11.82;;;3.58;;
36501;SDS011;25393;46.108;3.390;2023-05-13T00:37:01;6.53;;;3.80;;
36501;SDS011;25393;46.108;3.390;2023-05-13T00:39:28;9.45;;;4.20;;
36501;SDS011;25393;46.108;3.390;2023-05-13T00:41:57;7.25;;;3.88;;
36501;SDS011;25393;46.108;3.390;2023-05-13T00:44:25;6.63;;;4.25;;
36501;SDS011;25393;46.108;3.390;2023-05-13T00:46:52;12.48;;;5.55;;
36501;SDS011;25393;46.108;3.390;2023-05-13T00:49:19;6.55;;;4.47;;
36501;SDS011;25393;46.108;3.390;2023-05-13T00:51:46;7.70;;;3.33;;
36501;SDS011;25393;46.108;3.390;2023-05-13T00:54:12;6.70;;;3.75;;
36501;SDS011;25393;46.108;3.390;2023-05-13T00:56:39;5.78;;;3.70;;
36501;SDS011;25393;46.108;3.390;2023-05-13T00:59:05;7.22;;;3.92;;
36501;SDS011;25393;46.108;3.390;2023-05-13T01:01:47;7.38;;;4.00;;
36501;SDS011;25393;46.108;3.390;2023-05-13T01:12:32;9.32;;;4.82;;
36501;SDS011;25393;46.108;3.390;2023-05-13T01:15:06;6.40;;;3.70;;
36501;SDS011;25393;46.108;3.390;2023-05-13T01:17:42;8.50;;;4.45;;
36501;SDS011;25393;46.108;3.390;2023-05-13T01:20:14;10.57;;;4.63;;
36501;SDS011;25393;46.108;3.390;2023-05-13T01:22:46;12.13;;;5.03;;
36501;SDS011;25393;46.108;3.390;2023-05-13T01:25:12;11.00;;;4.70;;
36501;SDS011;25393;46.108;3.390;2023-05-13T01:27:39;11.43;;;5.40;;
36501;SDS011;25393;46.108;3.390;2023-05-13T01:30:06;8.05;;;4.55;;
36501;SDS011;25393;46.108;3.390;2023-05-13T01:32:34;10.07;;;5.00;;
36501;SDS011;25393;46.108;3.390;2023-05-13T01:35:02;14.38;;;5.72;;
36501;SDS011;25393;46.108;3.390;2023-05-13T01:37:30;9.95;;;5.25;;
36501;SDS011;25393;46.108;3.390;2023-05-13T01:39:59;10.70;;;6.13;;
36501;SDS011;25393;46.108;3.390;2023-05-13T01:42:28;8.52;;;4.78;;
36501;SDS011;25393;46.108;3.390;2023-05-13T01:44:55;11.52;;;5.60;;
36501;SDS011;25393;46.108;3.390;2023-05-13T01:47:22;9.38;;;5.43;;
36501;SDS011;25393;46.108;3.390;2023-05-13T01:49:49;11.95;;;5.70;;
36501;SDS011;25393;46.108;3.390;2023-05-13T01:52:15;13.20;;;6.38;;
36501;SDS011;25393;46.108;3.390;2023-05-13T01:54:42;8.45;;;5.10;;
36501;SDS011;25393;46.108;3.390;2023-05-13T01:57:08;8.63;;;5.53;;
36501;SDS011;25393;46.108;3.390;2023-05-13T01:59:35;10.27;;;5.00;;
36501;SDS011;25393;46.108;3.390;2023-05-13T02:02:02;12.20;;;5.63;;
36501;SDS011;25393;46.108;3.390;2023-05-13T02:04:32;11.00;;;6.10;;
36501;SDS011;25393;46.108;3.390;2023-05-13T02:07:01;9.90;;;5.68;;
36501;SDS011;25393;46.108;3.390;2023-05-13T02:09:27;9.95;;;6.18;;
36501;SDS011;25393;46.108;3.390;2023-05-13T02:11:54;10.90;;;5.88;;
36501;SDS011;25393;46.108;3.390;2023-05-13T02:14:20;14.88;;;6.00;;
36501;SDS011;25393;46.108;3.390;2023-05-13T02:16:47;13.55;;;6.05;;
36501;SDS011;25393;46.108;3.390;2023-05-13T02:19:13;14.25;;;5.63;;
36501;SDS011;25393;46.108;3.390;2023-05-13T02:21:40;10.85;;;5.80;;
36501;SDS011;25393;46.108;3.390;2023-05-13T02:24:08;10.98;;;5.40;;
36501;SDS011;25393;46.108;3.390;2023-05-13T02:26:38;14.38;;;5.88;;
36501;SDS011;25393;46.108;3.390;2023-05-13T02:29:06;10.27;;;5.72;;
36501;SDS011;25393;46.108;3.390;2023-05-13T02:31:33;15.48;;;6.40;;
36501;SDS011;25393;46.108;3.390;2023-05-13T02:34:02;10.90;;;5.80;;
36501;SDS011;25393;46.108;3.390;2023-05-13T02:36:28;13.43;;;6.13;;
36501;SDS011;25393;46.108;3.390;2023-05-13T02:38:55;15.07;;;5.30;;
36501;SDS011;25393;46.108;3.390;2023-05-13T02:41:22;13.07;;;6.32;;
36501;SDS011;25393;46.108;3.390;2023-05-13T02:43:49;16.27;;;6.25;;
36501;SDS011;25393;46.108;3.390;2023-05-13T02:46:16;12.63;;;5.88;;
36501;SDS011;25393;46.108;3.390;2023-05-13T02:48:42;10.05;;;6.07;;
36501;SDS011;25393;46.108;3.390;2023-05-13T02:51:09;16.42;;;7.55;;
36501;SDS011;25393;46.108;3.390;2023-05-13T02:53:35;17.33;;;7.00;;
36501;SDS011;25393;46.108;3.390;2023-05-13T02:56:03;15.15;;;7.80;;
36501;SDS011;25393;46.108;3.390;2023-05-13T02:58:30;12.13;;;6.57;;
36501;SDS011;25393;46.108;3.390;2023-05-13T03:00:56;20.20;;;7.70;;
36501;SDS011;25393;46.108;3.390;2023-05-13T03:03:23;15.48;;;6.43;;
36501;SDS011;25393;46.108;3.390;2023-05-13T03:05:50;19.77;;;7.28;;
36501;SDS011;25393;46.108;3.390;2023-05-13T03:08:16;17.10;;;7.43;;
36501;SDS011;25393;46.108;3.390;2023-05-13T03:10:43;19.05;;;8.15;;
36501;SDS011;25393;46.108;3.390;2023-05-13T03:13:09;12.95;;;7.35;;
36501;SDS011;25393;46.108;3.390;2023-05-13T03:15:36;22.80;;;7.25;;
36501;SDS011;25393;46.108;3.390;2023-05-13T03:18:10;10.48;;;6.53;;
36501;SDS011;25393;46.108;3.390;2023-05-13T03:20:37;12.90;;;6.82;;
36501;SDS011;25393;46.108;3.390;2023-05-13T03:23:07;13.18;;;7.28;;
36501;SDS011;25393;46.108;3.390;2023-05-13T03:25:37;13.18;;;6.97;;
36501;SDS011;25393;46.108;3.390;2023-05-13T03:28:07;14.27;;;7.82;;
36501;SDS011;25393;46.108;3.390;2023-05-13T03:30:36;14.15;;;6.55;;
36501;SDS011;25393;46.108;3.390;2023-05-13T03:33:02;17.25;;;7.72;;
36501;SDS011;25393;46.108;3.390;2023-05-13T03:35:29;11.18;;;7.20;;
36501;SDS011;25393;46.108;3.390;2023-05-13T03:37:56;13.90;;;7.40;;
36501;SDS011;25393;46.108;3.390;2023-05-13T03:40:22;22.00;;;6.78;;
36501;SDS011;25393;46.108;3.390;2023-05-13T03:42:49;17.05;;;6.82;;
36501;SDS011;25393;46.108;3.390;2023-05-13T03:45:15;13.38;;;6.65;;
36501;SDS011;25393;46.108;3.390;2023-05-13T03:47:42;10.20;;;6.10;;
36501;SDS011;25393;46.108;3.390;2023-05-13T03:50:08;16.23;;;7.55;;
36501;SDS011;25393;46.108;3.390;2023-05-13T03:52:37;17.55;;;6.25;;
36501;SDS011;25393;46.108;3.390;2023-05-13T03:55:04;13.35;;;6.45;;
36501;SDS011;25393;46.108;3.390;2023-05-13T03:57:31;11.52;;;6.32;;
36501;SDS011;25393;46.108;3.390;2023-05-13T03:59:58;13.07;;;5.95;;
36501;SDS011;25393;46.108;3.390;2023-05-13T04:02:24;14.32;;;6.40;;
36501;SDS011;25393;46.108;3.390;2023-05-13T04:04:51;13.88;;;6.75;;
36501;SDS011;25393;46.108;3.390;2023-05-13T04:07:17;11.40;;;6.13;;
36501;SDS011;25393;46.108;3.390;2023-05-13T04:09:44;16.30;;;7.80;;
36501;SDS011;25393;46.108;3.390;2023-05-13T04:12:13;11.48;;;6.07;;
36501;SDS011;25393;46.108;3.390;2023-05-13T04:14:44;12.13;;;6.55;;
36501;SDS011;25393;46.108;3.390;2023-05-13T04:17:13;15.10;;;6.82;;
36501;SDS011;25393;46.108;3.390;2023-05-13T04:19:40;14.43;;;6.07;;
36501;SDS011;25393;46.108;3.390;2023-05-13T04:22:09;12.30;;;6.45;;
36501;SDS011;25393;46.108;3.390;2023-05-13T04:24:35;13.68;;;7.28;;
36501;SDS011;25393;46.108;3.390;2023-05-13T04:27:02;16.15;;;7.32;;
36501;SDS011;25393;46.108;3.390;2023-05-13T04:29:28;18.88;;;7.78;;
36501;SDS011;25393;46.108;3.390;2023-05-13T04:31:55;16.88;;;7.47;;
36501;SDS011;25393;46.108;3.390;2023-05-13T04:34:21;13.82;;;7.22;;
36501;SDS011;25393;46.108;3.390;2023-05-13T04:36:48;15.95;;;7.72;;
36501;SDS011;25393;46.108;3.390;2023-05-13T04:39:15;15.88;;;7.82;;
36501;SDS011;25393;46.108;3.390;2023-05-13T04:41:44;17.85;;;7.18;;
36501;SDS011;25393;46.108;3.390;2023-05-13T04:44:10;14.70;;;8.10;;
36501;SDS011;25393;46.108;3.390;2023-05-13T04:46:39;20.27;;;7.32;;
36501;SDS011;25393;46.108;3.390;2023-05-13T04:49:11;11.65;;;6.75;;
36501;SDS011;25393;46.108;3.390;2023-05-13T04:51:40;15.50;;;7.22;;
36501;SDS011;25393;46.108;3.390;2023-05-13T04:54:09;22.58;;;7.85;;
36501;SDS011;25393;46.108;3.390;2023-05-13T04:56:36;16.10;;;7.75;;
36501;SDS011;25393;46.108;3.390;2023-05-13T04:59:02;16.45;;;7.55;;
36501;SDS011;25393;46.108;3.390;2023-05-13T05:01:29;17.65;;;7.70;;
36501;SDS011;25393;46.108;3.390;2023-05-13T05:03:56;18.73;;;7.80;;
36501;SDS011;25393;46.108;3.390;2023-05-13T05:06:23;16.55;;;7.88;;
36501;SDS011;25393;46.108;3.390;2023-05-13T05:08:50;16.67;;;7.72;;
36501;SDS011;25393;46.108;3.390;2023-05-13T05:11:17;14.88;;;7.65;;
36501;SDS011;25393;46.108;3.390;2023-05-13T05:13:44;15.52;;;7.60;;
36501;SDS011;25393;46.108;3.390;2023-05-13T05:16:10;19.25;;;8.02;;
36501;SDS011;25393;46.108;3.390;2023-05-13T05:18:40;18.55;;;8.50;;
36501;SDS011;25393;46.108;3.390;2023-05-13T05:21:14;20.95;;;8.90;;
36501;SDS011;25393;46.108;3.390;2023-05-13T05:23:46;18.48;;;9.02;;
36501;SDS011;25393;46.108;3.390;2023-05-13T05:26:13;21.15;;;9.50;;
36501;SDS011;25393;46.108;3.390;2023-05-13T05:28:43;20.33;;;9.38;;
36501;SDS011;25393;46.108;3.390;2023-05-13T05:31:11;22.70;;;9.57;;
36501;SDS011;25393;46.108;3.390;2023-05-13T05:33:40;18.52;;;7.63;;
36501;SDS011;25393;46.108;3.390;2023-05-13T05:36:09;18.67;;;8.50;;
36501;SDS011;25393;46.108;3.390;2023-05-13T05:38:35;19.48;;;8.27;;
36501;SDS011;25393;46.108;3.390;2023-05-13T05:41:02;18.08;;;9.10;;
36501;SDS011;25393;46.108;3.390;2023-05-13T05:43:29;17.23;;;9.38;;
36501;SDS011;25393;46.108;3.390;2023-05-13T05:45:56;18.98;;;8.73;;
36501;SDS011;25393;46.108;3.390;2023-05-13T05:48:23;23.15;;;9.27;;
36501;SDS011;25393;46.108;3.390;2023-05-13T05:50:49;21.38;;;8.35;;
36501;SDS011;25393;46.108;3.390;2023-05-13T05:53:16;22.45;;;8.70;;
36501;SDS011;25393;46.108;3.390;2023-05-13T05:55:43;17.15;;;8.02;;
36501;SDS011;25393;46.108;3.390;2023-05-13T05:58:13;18.70;;;8.30;;
36501;SDS011;25393;46.108;3.390;2023-05-13T06:00:44;19.25;;;8.77;;
36501;SDS011;25393;46.108;3.390;2023-05-13T06:03:11;19.80;;;8.90;;
36501;SDS011;25393;46.108;3.390;2023-05-13T06:05:40;21.23;;;9.13;;
36501;SDS011;25393;46.108;3.390;2023-05-13T06:08:10;14.98;;;8.48;;
36501;SDS011;25393;46.108;3.390;2023-05-13T06:10:45;15.32;;;7.82;;
36501;SDS011;25393;46.108;3.390;2023-05-13T06:13:14;16.58;;;8.40;;
36501;SDS011;25393;46.108;3.390;2023-05-13T06:15:41;17.30;;;8.40;;
36501;SDS011;25393;46.108;3.390;2023-05-13T06:18:13;16.83;;;7.43;;
36501;SDS011;25393;46.108;3.390;2023-05-13T06:20:40;16.13;;;6.97;;
36501;SDS011;25393;46.108;3.390;2023-05-13T06:23:08;13.18;;;7.07;;
36501;SDS011;25393;46.108;3.390;2023-05-13T06:25:35;14.75;;;7.75;;
36501;SDS011;25393;46.108;3.390;2023-05-13T06:28:02;13.43;;;7.13;;
36501;SDS011;25393;46.108;3.390;2023-05-13T06:30:29;13.18;;;6.97;;
36501;SDS011;25393;46.108;3.390;2023-05-13T06:32:57;13.23;;;7.10;;
36501;SDS011;25393;46.108;3.390;2023-05-13T06:35:27;17.77;;;7.65;;
36501;SDS011;25393;46.108;3.390;2023-05-13T06:37:54;15.02;;;7.53;;
36501;SDS011;25393;46.108;3.390;2023-05-13T06:40:20;15.40;;;7.10;;
36501;SDS011;25393;46.108;3.390;2023-05-13T06:42:47;15.35;;;6.88;;
36501;SDS011;25393;46.108;3.390;2023-05-13T06:45:13;13.88;;;6.70;;
36501;SDS011;25393;46.108;3.390;2023-05-13T06:47:40;14.25;;;6.70;;
36501;SDS011;25393;46.108;3.390;2023-05-13T06:50:09;14.48;;;7.25;;
36501;SDS011;25393;46.108;3.390;2023-05-13T06:52:36;17.63;;;7.10;;
36501;SDS011;25393;46.108;3.390;2023-05-13T06:55:05;15.45;;;7.45;;
36501;SDS011;25393;46.108;3.390;2023-05-13T06:57:32;14.27;;;7.45;;
36501;SDS011;25393;46.108;3.390;2023-05-13T07:00:08;13.23;;;7.43;;
36501;SDS011;25393;46.108;3.390;2023-05-13T07:02:35;14.55;;;7.13;;
36501;SDS011;25393;46.108;3.390;2023-05-13T07:05:02;17.23;;;7.07;;
36501;SDS011;25393;46.108;3.390;2023-05-13T07:07:28;14.50;;;6.65;;
36501;SDS011;25393;46.108;3.390;2023-05-13T07:09:55;12.00;;;6.57;;
36501;SDS011;25393;46.108;3.390;2023-05-13T07:12:22;12.82;;;6.90;;
36501;SDS011;25393;46.108;3.390;2023-05-13T07:14:48;11.57;;;6.70;;
36501;SDS011;25393;46.108;3.390;2023-05-13T07:17:15;11.65;;;6.85;;
36501;SDS011;25393;46.108;3.390;2023-05-13T07:19:45;12.32;;;6.25;;
36501;SDS011;25393;46.108;3.390;2023-05-13T07:22:13;14.23;;;6.30;;
36501;SDS011;25393;46.108;3.390;2023-05-13T07:24:41;12.70;;;6.65;;
36501;SDS011;25393;46.108;3.390;2023-05-13T07:27:07;10.88;;;6.78;;
36501;SDS011;25393;46.108;3.390;2023-05-13T07:29:34;12.70;;;6.63;;
36501;SDS011;25393;46.108;3.390;2023-05-13T07:32:04;13.27;;;6.93;;
36501;SDS011;25393;46.108;3.390;2023-05-13T07:34:31;13.98;;;7.53;;
36501;SDS011;25393;46.108;3.390;2023-05-13T07:36:57;15.57;;;7.72;;
36501;SDS011;25393;46.108;3.390;2023-05-13T07:39:25;15.25;;;7.22;;
36501;SDS011;25393;46.108;3.390;2023-05-13T07:41:51;13.82;;;7.75;;
36501;SDS011;25393;46.108;3.390;2023-05-13T07:44:18;12.38;;;6.93;;
36501;SDS011;25393;46.108;3.390;2023-05-13T07:46:48;14.98;;;8.43;;
36501;SDS011;25393;46.108;3.390;2023-05-13T07:49:16;16.67;;;8.75;;
36501;SDS011;25393;46.108;3.390;2023-05-13T07:51:43;16.90;;;7.97;;
36501;SDS011;25393;46.108;3.390;2023-05-13T07:54:10;14.45;;;8.05;;
36501;SDS011;25393;46.108;3.390;2023-05-13T07:56:37;17.02;;;8.25;;
36501;SDS011;25393;46.108;3.390;2023-05-13T07:59:03;14.60;;;7.85;;
36501;SDS011;25393;46.108;3.390;2023-05-13T08:01:30;14.35;;;7.63;;
36501;SDS011;25393;46.108;3.390;2023-05-13T08:03:56;15.55;;;7.97;;
36501;SDS011;25393;46.108;3.390;2023-05-13T08:06:23;18.00;;;7.95;;
36501;SDS011;25393;46.108;3.390;2023-05-13T08:08:50;15.10;;;7.20;;
36501;SDS011;25393;46.108;3.390;2023-05-13T08:11:16;16.33;;;8.18;;
36501;SDS011;25393;46.108;3.390;2023-05-13T08:13:43;20.90;;;8.30;;
36501;SDS011;25393;46.108;3.390;2023-05-13T08:16:09;14.52;;;8.23;;
36501;SDS011;25393;46.108;3.390;2023-05-13T08:18:36;16.65;;;8.13;;
36501;SDS011;25393;46.108;3.390;2023-05-13T08:21:03;21.45;;;8.98;;
36501;SDS011;25393;46.108;3.390;2023-05-13T08:23:30;16.88;;;9.07;;
36501;SDS011;25393;46.108;3.390;2023-05-13T08:26:10;15.98;;;8.48;;
36501;SDS011;25393;46.108;3.390;2023-05-13T08:28:37;19.02;;;8.63;;
36501;SDS011;25393;46.108;3.390;2023-05-13T08:31:03;18.40;;;8.40;;
36501;SDS011;25393;46.108;3.390;2023-05-13T08:33:30;12.27;;;6.72;;
36501;SDS011;25393;46.108;3.390;2023-05-13T08:35:57;15.27;;;7.68;;
36501;SDS011;25393;46.108;3.390;2023-05-13T08:38:25;13.85;;;7.75;;
36501;SDS011;25393;46.108;3.390;2023-05-13T08:40:51;16.52;;;7.18;;
36501;SDS011;25393;46.108;3.390;2023-05-13T08:43:18;21.67;;;9.40;;
36501;SDS011;25393;46.108;3.390;2023-05-13T08:45:45;17.98;;;9.63;;
36501;SDS011;25393;46.108;3.390;2023-05-13T08:48:18;18.98;;;9.20;;
36501;SDS011;25393;46.108;3.390;2023-05-13T08:50:45;15.80;;;8.15;;
36501;SDS011;25393;46.108;3.390;2023-05-13T08:53:12;19.45;;;10.00;;
36501;SDS011;25393;46.108;3.390;2023-05-13T08:55:45;16.95;;;8.35;;
36501;SDS011;25393;46.108;3.390;2023-05-13T08:58:12;19.58;;;8.27;;
36501;SDS011;25393;46.108;3.390;2023-05-13T09:00:38;17.27;;;8.30;;
36501;SDS011;25393;46.108;3.390;2023-05-13T09:03:05;15.10;;;7.60;;
36501;SDS011;25393;46.108;3.390;2023-05-13T09:05:32;14.48;;;8.15;;
36501;SDS011;25393;46.108;3.390;2023-05-13T09:08:05;13.30;;;7.13;;
36501;SDS011;25393;46.108;3.390;2023-05-13T09:10:36;13.15;;;6.43;;
36501;SDS011;25393;46.108;3.390;2023-05-13T09:13:03;15.30;;;7.60;;
36501;SDS011;25393;46.108;3.390;2023-05-13T09:15:30;12.50;;;6.90;;
36501;SDS011;25393;46.108;3.390;2023-05-13T09:18:00;12.65;;;7.25;;
36501;SDS011;25393;46.108;3.390;2023-05-13T09:20:30;13.75;;;7.32;;
36501;SDS011;25393;46.108;3.390;2023-05-13T09:25:29;10.15;;;5.72;;
36501;SDS011;25393;46.108;3.390;2023-05-13T09:27:57;10.68;;;5.95;;
36501;SDS011;25393;46.108;3.390;2023-05-13T09:30:43;11.35;;;5.35;;
36501;SDS011;25393;46.108;3.390;2023-05-13T09:33:22;13.35;;;5.95;;
36501;SDS011;25393;46.108;3.390;2023-05-13T09:35:55;11.70;;;5.55;;
36501;SDS011;25393;46.108;3.390;2023-05-13T09:38:25;12.77;;;5.30;;
36501;SDS011;25393;46.108;3.390;2023-05-13T09:40:53;9.52;;;5.53;;
36501;SDS011;25393;46.108;3.390;2023-05-13T09:43:21;8.02;;;5.18;;
36501;SDS011;25393;46.108;3.390;2023-05-13T09:45:53;11.70;;;5.47;;
36501;SDS011;25393;46.108;3.390;2023-05-13T09:48:24;9.55;;;5.05;;
36501;SDS011;25393;46.108;3.390;2023-05-13T09:50:53;7.80;;;4.20;;
36501;SDS011;25393;46.108;3.390;2023-05-13T09:53:24;11.00;;;5.32;;
36501;SDS011;25393;46.108;3.390;2023-05-13T09:55:52;9.90;;;4.97;;
36501;SDS011;25393;46.108;3.390;2023-05-13T09:58:24;10.73;;;4.68;;
36501;SDS011;25393;46.108;3.390;2023-05-13T10:00:53;9.38;;;5.18;;
36501;SDS011;25393;46.108;3.390;2023-05-13T10:03:23;8.90;;;5.20;;
36501;SDS011;25393;46.108;3.390;2023-05-13T10:05:53;10.32;;;5.60;;
36501;SDS011;25393;46.108;3.390;2023-05-13T10:08:22;10.45;;;5.72;;
36501;SDS011;25393;46.108;3.390;2023-05-13T10:10:49;9.00;;;5.05;;
36501;SDS011;25393;46.108;3.390;2023-05-13T10:13:22;9.20;;;5.47;;
36501;SDS011;25393;46.108;3.390;2023-05-13T10:15:51;14.27;;;6.40;;
36501;SDS011;25393;46.108;3.390;2023-05-13T10:18:20;10.13;;;5.55;;
36501;SDS011;25393;46.108;3.390;2023-05-13T10:20:51;12.40;;;5.85;;
36501;SDS011;25393;46.108;3.390;2023-05-13T10:23:21;10.77;;;6.65;;
36501;SDS011;25393;46.108;3.390;2023-05-13T10:25:52;12.88;;;6.60;;
36501;SDS011;25393;46.108;3.390;2023-05-13T10:28:20;10.90;;;5.75;;
36501;SDS011;25393;46.108;3.390;2023-05-13T10:30:49;13.65;;;6.20;;
36501;SDS011;25393;46.108;3.390;2023-05-13T10:33:16;15.25;;;7.05;;
36501;SDS011;25393;46.108;3.390;2023-05-13T10:35:49;12.02;;;6.53;;
36501;SDS011;25393;46.108;3.390;2023-05-13T10:41:37;14.35;;;6.97;;
36501;SDS011;25393;46.108;3.390;2023-05-13T10:44:13;14.25;;;7.22;;
36501;SDS011;25393;46.108;3.390;2023-05-13T10:46:43;14.70;;;8.07;;
36501;SDS011;25393;46.108;3.390;2023-05-13T10:49:13;13.82;;;6.60;;
36501;SDS011;25393;46.108;3.390;2023-05-13T10:51:43;16.55;;;7.05;;
36501;SDS011;25393;46.108;3.390;2023-05-13T10:54:19;14.68;;;7.15;;
36501;SDS011;25393;46.108;3.390;2023-05-13T10:56:56;10.20;;;5.85;;
36501;SDS011;25393;46.108;3.390;2023-05-13T10:59:27;14.57;;;8.32;;
36501;SDS011;25393;46.108;3.390;2023-05-13T11:01:55;14.18;;;7.07;;
36501;SDS011;25393;46.108;3.390;2023-05-13T11:04:22;15.48;;;7.30;;
36501;SDS011;25393;46.108;3.390;2023-05-13T11:06:51;16.30;;;8.70;;
36501;SDS011;25393;46.108;3.390;2023-05-13T11:11:48;17.60;;;8.30;;
36501;SDS011;25393;46.108;3.390;2023-05-13T11:19:28;19.42;;;9.45;;
36501;SDS011;25393;46.108;3.390;2023-05-13T11:22:00;21.35;;;9.98;;
36501;SDS011;25393;46.108;3.390;2023-05-13T11:24:33;22.15;;;9.38;;
36501;SDS011;25393;46.108;3.390;2023-05-13T11:27:11;20.27;;;9.48;;
36501;SDS011;25393;46.108;3.390;2023-05-13T11:29:47;19.45;;;9.38;;
36501;SDS011;25393;46.108;3.390;2023-05-13T11:37:54;20.33;;;8.88;;
36501;SDS011;25393;46.108;3.390;2023-05-13T11:40:26;18.55;;;8.93;;
36501;SDS011;25393;46.108;3.390;2023-05-13T11:42:57;20.88;;;10.13;;
36501;SDS011;25393;46.108;3.390;2023-05-13T11:45:25;16.08;;;8.13;;
36501;SDS011;25393;46.108;3.390;2023-05-13T11:48:00;15.45;;;8.00;;
36501;SDS011;25393;46.108;3.390;2023-05-13T11:50:44;18.15;;;8.25;;
36501;SDS011;25393;46.108;3.390;2023-05-13T11:53:11;18.38;;;8.40;;
36501;SDS011;25393;46.108;3.390;2023-05-13T11:55:45;18.23;;;8.57;;
36501;SDS011;25393;46.108;3.390;2023-05-13T11:58:12;16.00;;;8.35;;
36501;SDS011;25393;46.108;3.390;2023-05-13T12:00:40;20.10;;;8.90;;
36501;SDS011;25393;46.108;3.390;2023-05-13T12:03:10;16.67;;;8.90;;
36501;SDS011;25393;46.108;3.390;2023-05-13T12:05:38;19.73;;;8.25;;
36501;SDS011;25393;46.108;3.390;2023-05-13T12:08:06;16.13;;;7.95;;
36501;SDS011;25393;46.108;3.390;2023-05-13T12:10:42;17.10;;;8.93;;
36501;SDS011;25393;46.108;3.390;2023-05-13T12:13:20;19.25;;;9.13;;
36501;SDS011;25393;46.108;3.390;2023-05-13T12:15:47;15.20;;;8.40;;
36501;SDS011;25393;46.108;3.390;2023-05-13T12:18:15;18.52;;;8.52;;
36501;SDS011;25393;46.108;3.390;2023-05-13T12:20:42;14.55;;;8.40;;
36501;SDS011;25393;46.108;3.390;2023-05-13T12:23:08;16.92;;;8.65;;
36501;SDS011;25393;46.108;3.390;2023-05-13T12:25:37;19.52;;;8.48;;
36501;SDS011;25393;46.108;3.390;2023-05-13T12:33:17;19.98;;;8.75;;
36501;SDS011;25393;46.108;3.390;2023-05-13T12:36:13;13.55;;;6.88;;
36501;SDS011;25393;46.108;3.390;2023-05-13T12:39:04;16.98;;;8.75;;
36501;SDS011;25393;46.108;3.390;2023-05-13T12:41:33;15.77;;;8.48;;
36501;SDS011;25393;46.108;3.390;2023-05-13T12:46:34;16.73;;;8.07;;
36501;SDS011;25393;46.108;3.390;2023-05-13T12:49:02;18.13;;;7.55;;
36501;SDS011;25393;46.108;3.390;2023-05-13T12:51:30;16.08;;;8.32;;
36501;SDS011;25393;46.108;3.390;2023-05-13T12:54:02;19.48;;;8.40;;
36501;SDS011;25393;46.108;3.390;2023-05-13T12:56:31;17.55;;;8.30;;
36501;SDS011;25393;46.108;3.390;2023-05-13T12:59:01;18.58;;;7.60;;
36501;SDS011;25393;46.108;3.390;2023-05-13T13:01:27;15.18;;;8.20;;
36501;SDS011;25393;46.108;3.390;2023-05-13T13:03:55;13.18;;;7.03;;
36501;SDS011;25393;46.108;3.390;2023-05-13T13:06:22;13.55;;;7.57;;
36501;SDS011;25393;46.108;3.390;2023-05-13T13:08:48;13.25;;;7.00;;
36501;SDS011;25393;46.108;3.390;2023-05-13T13:11:15;13.75;;;6.50;;
36501;SDS011;25393;46.108;3.390;2023-05-13T13:13:45;11.05;;;6.15;;
36501;SDS011;25393;46.108;3.390;2023-05-13T13:16:12;14.32;;;6.70;;
36501;SDS011;25393;46.108;3.390;2023-05-13T13:18:39;11.85;;;6.60;;
36501;SDS011;25393;46.108;3.390;2023-05-13T13:21:07;11.68;;;6.25;;
36501;SDS011;25393;46.108;3.390;2023-05-13T13:23:34;10.27;;;5.28;;
36501;SDS011;25393;46.108;3.390;2023-05-13T13:26:01;10.30;;;5.38;;
36501;SDS011;25393;46.108;3.390;2023-05-13T13:28:28;11.80;;;6.03;;
36501;SDS011;25393;46.108;3.390;2023-05-13T13:31:01;8.35;;;5.80;;
36501;SDS011;25393;46.108;3.390;2023-05-13T13:33:27;11.20;;;6.13;;
36501;SDS011;25393;46.108;3.390;2023-05-13T13:35:56;11.02;;;5.65;;
36501;SDS011;25393;46.108;3.390;2023-05-13T13:38:23;10.23;;;6.95;;
36501;SDS011;25393;46.108;3.390;2023-05-13T13:40:49;11.20;;;5.53;;
36501;SDS011;25393;46.108;3.390;2023-05-13T13:43:16;12.93;;;6.95;;
36501;SDS011;25393;46.108;3.390;2023-05-13T13:45:42;13.40;;;7.70;;
36501;SDS011;25393;46.108;3.390;2023-05-13T13:48:09;8.80;;;5.80;;
36501;SDS011;25393;46.108;3.390;2023-05-13T13:50:37;10.25;;;5.00;;
36501;SDS011;25393;46.108;3.390;2023-05-13T13:53:03;11.15;;;6.50;;
36501;SDS011;25393;46.108;3.390;2023-05-13T13:55:32;12.48;;;6.03;;
36501;SDS011;25393;46.108;3.390;2023-05-13T13:58:02;9.60;;;4.97;;
36501;SDS011;25393;46.108;3.390;2023-05-13T14:00:32;10.10;;;6.75;;
36501;SDS011;25393;46.108;3.390;2023-05-13T14:03:02;9.10;;;5.57;;
36501;SDS011;25393;46.108;3.390;2023-05-13T14:05:32;9.52;;;5.20;;
36501;SDS011;25393;46.108;3.390;2023-05-13T14:08:01;11.73;;;6.88;;
36501;SDS011;25393;46.108;3.390;2023-05-13T14:10:28;8.63;;;5.53;;
36501;SDS011;25393;46.108;3.390;2023-05-13T14:12:58;7.53;;;4.93;;
36501;SDS011;25393;46.108;3.390;2023-05-13T14:15:27;10.25;;;4.97;;
36501;SDS011;25393;46.108;3.390;2023-05-13T14:17:56;9.25;;;6.15;;
36501;SDS011;25393;46.108;3.390;2023-05-13T14:20:23;9.15;;;5.60;;
36501;SDS011;25393;46.108;3.390;2023-05-13T14:22:50;8.65;;;5.50;;
36501;SDS011;25393;46.108;3.390;2023-05-13T14:25:16;9.88;;;4.97;;
36501;SDS011;25393;46.108;3.390;2023-05-13T14:27:43;7.18;;;4.78;;
36501;SDS011;25393;46.108;3.390;2023-05-13T14:30:09;9.27;;;5.15;;
36501;SDS011;25393;46.108;3.390;2023-05-13T14:32:36;9.05;;;5.15;;
36501;SDS011;25393;46.108;3.390;2023-05-13T14:35:02;9.10;;;5.13;;
36501;SDS011;25393;46.108;3.390;2023-05-13T14:37:31;11.68;;;6.20;;
36501;SDS011;25393;46.108;3.390;2023-05-13T14:39:58;10.57;;;5.80;;
36501;SDS011;25393;46.108;3.390;2023-05-13T14:42:27;11.30;;;6.82;;
36501;SDS011;25393;46.108;3.390;2023-05-13T14:44:56;8.82;;;5.72;;
36501;SDS011;25393;46.108;3.390;2023-05-13T14:47:22;10.90;;;5.95;;
36501;SDS011;25393;46.108;3.390;2023-05-13T14:49:49;11.10;;;6.68;;
36501;SDS011;25393;46.108;3.390;2023-05-13T14:52:15;9.20;;;6.20;;
36501;SDS011;25393;46.108;3.390;2023-05-13T14:54:42;8.60;;;6.13;;
36501;SDS011;25393;46.108;3.390;2023-05-13T14:57:08;8.77;;;7.88;;
36501;SDS011;25393;46.108;3.390;2023-05-13T14:59:36;10.77;;;8.52;;
36501;SDS011;25393;46.108;3.390;2023-05-13T15:02:02;8.40;;;7.40;;
36501;SDS011;25393;46.108;3.390;2023-05-13T15:04:32;8.90;;;8.00;;
36501;SDS011;25393;46.108;3.390;2023-05-13T15:07:00;8.23;;;7.38;;
36501;SDS011;25393;46.108;3.390;2023-05-13T15:09:27;11.98;;;8.65;;
36501;SDS011;25393;46.108;3.390;2023-05-13T15:11:54;10.40;;;8.35;;
36501;SDS011;25393;46.108;3.390;2023-05-13T15:14:24;8.93;;;7.43;;
36501;SDS011;25393;46.108;3.390;2023-05-13T15:16:51;8.05;;;7.13;;